createdAt,value
2023-12-15T00:00:01.564Z,0.5
2023-12-15T00:03:02.361Z,0.5
2023-12-15T00:05:03.069Z,0.5
2023-12-15T00:08:03.864Z,0.5
2023-12-15T00:10:04.678Z,0.5
2023-12-15T00:13:05.260Z,0.5
2023-12-15T00:15:05.913Z,0.4
2023-12-15T00:18:06.650Z,0.4
2023-12-15T00:23:07.663Z,0.3
2023-12-15T00:25:08.356Z,0.3
2023-12-15T00:28:08.972Z,0.3
2023-12-15T00:30:09.623Z,0.3
2023-12-15T00:33:10.471Z,0.3
2023-12-15T00:35:11.493Z,0.3
2023-12-15T00:38:12.314Z,0.3
2023-12-15T00:40:13.075Z,0.3
2023-12-15T00:43:13.683Z,0.3
2023-12-15T00:46:14.256Z,0.3
2023-12-15T00:48:14.906Z,0.3
2023-12-15T00:51:15.679Z,0.3
2023-12-15T00:53:16.264Z,0.3
2023-12-15T00:56:16.912Z,0.3
2023-12-15T00:58:17.845Z,0.3
2023-12-15T01:03:18.460Z,0.3
2023-12-15T01:06:19.198Z,0.3
2023-12-15T01:08:20.027Z,0.3
2023-12-15T01:11:20.731Z,0.3
2023-12-15T01:14:21.598Z,0.3
2023-12-15T01:16:22.419Z,0.3
2023-12-15T01:19:23.071Z,0.3
2023-12-15T01:21:23.856Z,0.3
2023-12-15T01:24:24.452Z,0.3
2023-12-15T01:26:25.057Z,0.3
2023-12-15T01:29:25.846Z,0.3
2023-12-15T01:31:26.636Z,0.3
2023-12-15T01:34:27.260Z,0.3
2023-12-15T01:36:27.847Z,0.3
2023-12-15T01:39:28.429Z,0.3
2023-12-15T01:44:29.066Z,0.3
2023-12-15T01:46:29.951Z,0.2
2023-12-15T01:49:30.614Z,0.2
2023-12-15T01:51:31.374Z,0.2
2023-12-15T01:54:31.943Z,0.2
2023-12-15T01:56:32.664Z,0.2
2023-12-15T01:59:33.489Z,0.3
2023-12-15T02:01:34.256Z,0.3
2023-12-15T02:04:35.214Z,0.2
2023-12-15T02:07:36.055Z,0.2
2023-12-15T02:09:37.522Z,0.1
2023-12-15T02:12:38.139Z,0.1
2023-12-15T02:14:38.698Z,0.0
2023-12-15T02:17:39.617Z,-0.1
2023-12-15T02:19:41.665Z,-0.2
2023-12-15T02:24:42.281Z,-0.2
2023-12-15T02:27:42.863Z,-0.3
2023-12-15T02:29:43.418Z,-0.3
2023-12-15T02:32:44.616Z,-0.4
2023-12-15T02:34:45.715Z,-0.5
2023-12-15T02:37:46.389Z,-0.5
2023-12-15T02:40:46.999Z,-0.6
2023-12-15T02:42:47.614Z,-0.6
2023-12-15T02:45:48.216Z,-0.7
2023-12-15T02:47:48.951Z,-0.7
2023-12-15T02:50:50.395Z,-0.7
2023-12-15T02:52:51.019Z,-0.7
2023-12-15T02:55:52.071Z,-0.7
2023-12-15T02:57:52.754Z,-0.8
2023-12-15T03:00:53.481Z,-0.8
2023-12-15T03:05:54.231Z,-0.9
2023-12-15T03:07:54.903Z,-0.9
2023-12-15T03:10:55.608Z,-0.9
2023-12-15T03:12:56.249Z,-0.9
2023-12-15T03:15:56.861Z,-0.9
2023-12-15T03:17:57.545Z,-0.9
2023-12-15T03:20:58.321Z,-0.9
2023-12-15T03:22:59.013Z,-0.9
2023-12-15T03:25:59.722Z,-0.9
2023-12-15T03:28:00.447Z,-0.9
2023-12-15T03:31:01.050Z,-0.9
2023-12-15T03:33:01.696Z,-0.9
2023-12-15T03:36:02.478Z,-0.9
2023-12-15T03:39:03.067Z,-0.9
2023-12-15T03:41:03.716Z,-1.0
2023-12-15T03:46:04.443Z,-1.0
2023-12-15T03:49:05.144Z,-1.1
2023-12-15T03:51:05.883Z,-1.1
2023-12-15T03:54:06.483Z,-1.1
2023-12-15T03:56:07.062Z,-1.1
2023-12-15T03:59:07.757Z,-1.2
2023-12-15T04:01:08.417Z,-1.2
2023-12-15T04:04:09.053Z,-1.3
2023-12-15T04:06:09.990Z,-1.3
2023-12-15T04:09:10.992Z,-1.3
2023-12-15T04:12:11.584Z,-1.2
2023-12-15T04:14:12.195Z,-1.3
2023-12-15T04:17:12.974Z,-1.3
2023-12-15T04:19:13.720Z,-1.3
2023-12-15T04:22:14.649Z,-1.3
2023-12-15T04:27:15.238Z,-1.4
2023-12-15T04:29:15.919Z,-1.4
2023-12-15T04:32:16.701Z,-1.4
2023-12-15T04:34:17.369Z,-1.4
2023-12-15T04:37:17.959Z,-1.4
2023-12-15T04:39:18.520Z,-1.5
2023-12-15T04:42:19.155Z,-1.5
2023-12-15T04:45:19.715Z,-1.5
2023-12-15T04:47:20.391Z,-1.5
2023-12-15T04:50:21.158Z,-1.5
2023-12-15T04:52:21.938Z,-1.6
2023-12-15T04:55:22.613Z,-1.6
2023-12-15T04:57:23.215Z,-1.6
2023-12-15T05:00:23.786Z,-1.7
2023-12-15T05:02:24.446Z,-1.7
2023-12-15T05:07:25.184Z,-1.7
2023-12-15T05:10:25.893Z,-1.7
2023-12-15T05:12:26.930Z,-1.7
2023-12-15T05:15:27.491Z,-1.7
2023-12-15T05:17:28.142Z,-1.7
2023-12-15T05:20:28.805Z,-1.7
2023-12-15T05:22:29.649Z,-1.8
2023-12-15T05:25:30.242Z,-1.8
2023-12-15T05:27:30.804Z,-1.8
2023-12-15T05:30:31.437Z,-1.8
2023-12-15T05:32:32.180Z,-1.8
2023-12-15T05:35:33.262Z,-1.9
2023-12-15T05:38:34.030Z,-1.9
2023-12-15T05:40:35.114Z,-1.9
2023-12-15T05:43:35.695Z,-1.9
2023-12-15T05:48:36.458Z,-2.0
2023-12-15T05:50:37.717Z,-2.0
2023-12-15T05:53:48.037Z,-1.9
2023-12-15T05:55:59.001Z,-1.9
2023-12-15T05:58:59.778Z,-1.9
2023-12-15T06:01:00.587Z,-1.9
2023-12-15T06:04:01.283Z,-1.9
2023-12-15T06:06:01.887Z,-2.0
2023-12-15T06:09:03.024Z,-2.0
2023-12-15T06:11:03.586Z,-2.0
2023-12-15T06:14:04.280Z,-2.1
2023-12-15T06:16:05.025Z,-2.1
2023-12-15T06:19:05.697Z,-2.1
2023-12-15T06:21:06.482Z,-2.2
2023-12-15T06:24:07.148Z,-2.3
2023-12-15T06:29:07.803Z,-2.5
2023-12-15T06:31:08.460Z,-2.5
2023-12-15T06:34:09.051Z,-2.5
2023-12-15T06:36:09.708Z,-2.5
2023-12-15T06:39:10.283Z,-2.5
2023-12-15T06:41:10.899Z,-2.5
2023-12-15T06:44:11.691Z,-2.6
2023-12-15T06:47:12.477Z,-2.7
2023-12-15T06:49:14.314Z,-2.8
2023-12-15T06:51:20.044Z,-2.9
2023-12-15T06:54:20.618Z,-2.9
2023-12-15T06:57:21.196Z,-3.0
2023-12-15T06:59:21.794Z,-3.0
2023-12-15T07:02:22.579Z,-3.1
2023-12-15T07:04:23.606Z,-3.1
2023-12-15T07:09:24.474Z,-3.1
2023-12-15T07:12:25.139Z,-3.1
2023-12-15T07:14:25.762Z,-3.0
2023-12-15T07:17:26.456Z,-2.9
2023-12-15T07:19:27.188Z,-2.9
2023-12-15T07:22:28.037Z,-2.9
2023-12-15T07:24:28.655Z,-2.9
2023-12-15T07:27:29.246Z,-2.9
2023-12-15T07:29:29.880Z,-2.8
2023-12-15T07:32:30.732Z,-2.7
2023-12-15T07:35:32.588Z,-2.6
2023-12-15T07:37:34.700Z,-2.7
2023-12-15T07:40:36.187Z,-2.6
2023-12-15T07:42:39.133Z,-2.5
2023-12-15T07:45:39.856Z,-2.5
2023-12-15T07:50:40.460Z,-2.5
2023-12-15T07:52:41.154Z,-2.5
2023-12-15T07:55:41.767Z,-2.3
2023-12-15T07:57:42.401Z,-2.3
2023-12-15T08:00:43.031Z,-2.3
2023-12-15T08:02:43.967Z,-2.2
2023-12-15T08:05:44.820Z,-2.2
2023-12-15T08:07:45.600Z,-2.1
2023-12-15T08:10:46.174Z,-2.1
2023-12-15T08:12:46.826Z,-2.1
2023-12-15T08:15:47.400Z,-2.1
2023-12-15T08:18:48.103Z,-2.0
2023-12-15T08:20:48.873Z,-2.0
2023-12-15T08:23:49.608Z,-1.9
2023-12-15T08:25:50.188Z,-1.9
2023-12-15T08:30:50.914Z,-1.9
2023-12-15T08:33:51.783Z,-1.9
2023-12-15T08:35:52.704Z,-1.9
2023-12-15T08:38:53.271Z,-1.8
2023-12-15T08:40:53.903Z,-1.8
2023-12-15T08:43:54.568Z,-1.7
2023-12-15T08:45:55.142Z,-1.7
2023-12-15T08:48:55.828Z,-1.7
2023-12-15T08:50:56.801Z,-1.7
2023-12-15T08:53:57.396Z,-1.6
2023-12-15T08:55:58.014Z,-1.6
2023-12-15T08:58:58.676Z,-1.6
2023-12-15T09:01:59.421Z,-1.5
2023-12-15T09:04:00.147Z,-1.5
2023-12-15T09:07:00.776Z,-1.5
2023-12-15T09:12:01.690Z,-1.5
2023-12-15T09:14:02.296Z,-1.5
2023-12-15T09:17:03.202Z,-1.5
2023-12-15T09:19:04.043Z,-1.5
2023-12-15T09:22:05.169Z,-1.4
2023-12-15T09:24:07.174Z,-1.3
2023-12-15T09:27:11.500Z,-1.3
2023-12-15T09:29:12.160Z,-1.2
2023-12-15T09:32:12.955Z,-1.1
2023-12-15T09:34:13.709Z,-1.0
2023-12-15T09:37:14.507Z,-0.9
2023-12-15T09:39:15.103Z,-0.9
2023-12-15T09:42:15.708Z,-0.8
2023-12-15T09:44:16.322Z,-0.5
2023-12-15T09:47:17.017Z,-0.5
2023-12-15T09:52:17.739Z,-0.1
2023-12-15T09:55:18.387Z,0.0
2023-12-15T09:57:18.999Z,0.1
2023-12-15T10:00:19.578Z,0.1
2023-12-15T10:02:20.207Z,0.1
2023-12-15T10:05:20.878Z,0.2
2023-12-15T10:07:21.540Z,0.2
2023-12-15T10:12:22.120Z,0.3
2023-12-15T10:15:22.879Z,0.3
2023-12-15T10:17:29.881Z,0.2
2023-12-15T10:20:31.151Z,0.2
2023-12-15T10:22:31.967Z,0.3
2023-12-15T10:25:32.586Z,0.3
2023-12-15T10:27:33.202Z,0.3
2023-12-15T10:32:33.819Z,0.3
2023-12-15T10:35:34.736Z,0.4
2023-12-15T10:37:35.377Z,0.4
2023-12-15T10:40:36.063Z,0.4
2023-12-15T10:42:36.955Z,0.4
2023-12-15T10:45:38.695Z,0.5
2023-12-15T10:48:39.350Z,0.4
2023-12-15T10:50:40.171Z,0.4
2023-12-15T10:53:40.957Z,0.4
2023-12-15T10:55:41.567Z,0.4
2023-12-15T10:58:42.149Z,0.5
2023-12-15T11:00:42.756Z,0.4
2023-12-15T11:03:43.496Z,0.5
2023-12-15T11:05:44.366Z,0.4
2023-12-15T11:08:45.350Z,0.5
2023-12-15T11:13:46.085Z,0.6
2023-12-15T11:15:46.693Z,0.7
2023-12-15T11:18:47.327Z,0.7
2023-12-15T11:21:48.293Z,0.7
2023-12-15T11:23:48.880Z,0.6
2023-12-15T11:26:49.540Z,0.7
2023-12-15T11:28:50.149Z,0.6
2023-12-15T11:31:50.737Z,0.6
2023-12-15T11:33:51.463Z,0.7
2023-12-15T11:36:52.552Z,0.7
2023-12-15T11:38:53.144Z,0.7
2023-12-15T11:41:54.045Z,0.7
2023-12-15T11:43:54.638Z,0.8
2023-12-15T11:46:55.230Z,0.7
2023-12-15T11:53:55.916Z,0.9
2023-12-15T11:56:56.611Z,0.9
2023-12-15T11:58:57.214Z,0.9
2023-12-15T12:01:57.782Z,0.9
2023-12-15T12:03:58.397Z,0.9
2023-12-15T12:06:59.135Z,0.9
2023-12-15T12:09:59.724Z,0.9
2023-12-15T12:12:00.349Z,0.9
2023-12-15T12:15:00.949Z,0.9
2023-12-15T12:17:01.724Z,1.0
2023-12-15T12:20:02.504Z,1.0
2023-12-15T12:22:03.237Z,1.0
2023-12-15T12:25:03.799Z,1.1
2023-12-15T12:27:04.383Z,1.1
2023-12-15T12:30:04.955Z,1.1
2023-12-15T12:35:05.761Z,1.1
2023-12-15T12:37:06.420Z,1.1
2023-12-15T12:40:07.040Z,1.1
2023-12-15T12:42:07.678Z,1.1
2023-12-15T12:45:08.247Z,1.1
2023-12-15T12:48:08.962Z,1.1
2023-12-15T12:50:10.245Z,1.1
2023-12-15T12:53:11.167Z,1.2
2023-12-15T12:55:11.849Z,1.2
2023-12-15T12:58:12.479Z,1.3
2023-12-15T13:00:13.086Z,1.2
2023-12-15T13:03:13.754Z,1.2
2023-12-15T13:05:14.540Z,1.3
2023-12-15T13:08:15.326Z,1.3
2023-12-15T13:10:17.662Z,1.3
2023-12-15T13:15:22.994Z,1.4
2023-12-15T13:18:23.857Z,1.4
2023-12-15T13:20:24.951Z,1.4
2023-12-15T13:23:25.743Z,1.4
2023-12-15T13:25:26.423Z,1.4
2023-12-15T13:28:27.056Z,1.4
2023-12-15T13:30:27.705Z,1.5
2023-12-15T13:33:28.726Z,1.4
2023-12-15T13:36:30.160Z,1.3
2023-12-15T13:38:30.777Z,1.3
2023-12-15T13:41:31.443Z,1.4
2023-12-15T13:43:32.179Z,1.4
2023-12-15T13:46:32.757Z,1.4
2023-12-15T13:48:33.424Z,1.4
2023-12-15T13:51:34.363Z,1.4
2023-12-15T13:56:35.086Z,1.4
2023-12-15T13:58:35.983Z,1.3
2023-12-15T14:01:36.755Z,1.3
2023-12-15T14:03:37.330Z,1.3
2023-12-15T14:06:38.031Z,1.3
2023-12-15T14:08:38.988Z,1.3
2023-12-15T14:11:39.764Z,1.3
2023-12-15T14:13:40.567Z,1.3
2023-12-15T14:16:44.190Z,1.3
2023-12-15T14:18:48.545Z,1.3
2023-12-15T14:21:49.543Z,1.3
2023-12-15T14:24:50.148Z,1.3
2023-12-15T14:26:50.807Z,1.3
2023-12-15T14:29:51.761Z,1.3
2023-12-15T14:31:52.472Z,1.3
2023-12-15T14:36:53.068Z,1.3
2023-12-15T14:39:53.657Z,1.3
2023-12-15T14:41:55.136Z,1.2
2023-12-15T14:44:56.183Z,1.3
2023-12-15T14:46:56.966Z,1.2
2023-12-15T14:50:01.268Z,1.3
2023-12-15T14:52:02.429Z,1.2
2023-12-15T14:55:03.042Z,1.2
2023-12-15T14:57:03.761Z,1.2
2023-12-15T15:00:04.331Z,1.3
2023-12-15T15:02:04.967Z,1.2
2023-12-15T15:05:05.757Z,1.2
2023-12-15T15:07:06.683Z,1.2
2023-12-15T15:10:07.285Z,1.2
2023-12-15T15:12:07.872Z,1.2
2023-12-15T15:18:08.732Z,1.2
2023-12-15T15:20:09.918Z,1.2
2023-12-15T15:23:10.673Z,1.2
2023-12-15T15:25:11.343Z,1.1
2023-12-15T15:28:11.943Z,1.1
2023-12-15T15:30:12.545Z,1.1
2023-12-15T15:33:13.441Z,1.2
2023-12-15T15:35:14.528Z,1.2
2023-12-15T15:38:15.109Z,1.2
2023-12-15T15:40:15.728Z,1.1
2023-12-15T15:43:16.619Z,1.1
2023-12-15T15:45:17.284Z,1.1
2023-12-15T15:48:17.951Z,1.2
2023-12-15T15:50:18.934Z,1.2
2023-12-15T15:53:19.975Z,1.2
2023-12-15T15:58:22.534Z,1.1
2023-12-15T16:00:23.331Z,1.1
2023-12-15T16:03:24.038Z,1.1
2023-12-15T16:05:24.967Z,1.1
2023-12-15T16:08:26.448Z,1.1
2023-12-15T16:11:27.850Z,1.1
2023-12-15T16:16:28.545Z,1.1
2023-12-15T16:18:29.110Z,1.1
2023-12-15T16:21:29.726Z,1.1
2023-12-15T16:23:30.329Z,1.1
2023-12-15T16:26:30.917Z,1.1
2023-12-15T16:28:31.508Z,1.1
2023-12-15T16:31:32.145Z,1.1
2023-12-15T16:33:33.068Z,1.1
2023-12-15T16:38:33.874Z,1.1
2023-12-15T16:41:34.970Z,1.1
2023-12-15T16:44:35.571Z,1.1
2023-12-15T16:46:36.180Z,1.1
2023-12-15T16:49:36.867Z,1.1
2023-12-15T16:51:37.796Z,1.1
2023-12-15T16:54:38.594Z,1.1
2023-12-15T16:56:39.310Z,1.1
2023-12-15T16:59:41.736Z,1.1
2023-12-15T17:01:43.254Z,1.1
2023-12-15T17:04:44.233Z,1.1
2023-12-15T17:06:44.898Z,1.1
2023-12-15T17:09:45.562Z,1.1
2023-12-15T17:11:46.208Z,1.1
2023-12-15T17:14:46.798Z,1.1
2023-12-15T17:19:48.395Z,1.1
2023-12-15T17:21:53.589Z,1.1
2023-12-15T17:24:54.271Z,1.1
2023-12-15T17:26:55.052Z,1.1
2023-12-15T17:29:55.623Z,1.1
2023-12-15T17:32:56.225Z,1.1
2023-12-15T17:34:57.139Z,1.1
2023-12-15T17:37:57.872Z,1.1
2023-12-15T17:39:58.535Z,1.1
2023-12-15T17:42:59.412Z,1.1
2023-12-15T17:45:00.558Z,1.1
2023-12-15T17:48:01.259Z,1.1
2023-12-15T17:50:02.392Z,1.1
2023-12-15T17:53:03.201Z,1.1
2023-12-15T17:55:03.897Z,1.1
2023-12-15T18:00:04.751Z,1.2
2023-12-15T18:03:05.401Z,1.2
2023-12-15T18:05:06.208Z,1.2
2023-12-15T18:08:06.916Z,1.2
2023-12-15T18:10:07.549Z,1.2
2023-12-15T18:13:08.318Z,1.2
2023-12-15T18:15:09.028Z,1.2
2023-12-15T18:18:09.734Z,1.2
2023-12-15T18:20:10.704Z,1.2
2023-12-15T18:23:11.277Z,1.2
2023-12-15T18:25:11.875Z,1.2
2023-12-15T18:28:16.492Z,1.2
2023-12-15T18:30:26.172Z,1.2
2023-12-15T18:33:26.870Z,1.2
2023-12-15T18:35:27.602Z,1.2
2023-12-15T18:41:28.265Z,1.2
2023-12-15T18:43:28.859Z,1.2
2023-12-15T18:46:29.781Z,1.2
2023-12-15T18:48:30.567Z,1.2
2023-12-15T18:51:31.455Z,1.2
2023-12-15T18:53:32.044Z,1.2
2023-12-15T18:56:32.601Z,1.2
2023-12-15T18:58:33.207Z,1.2
2023-12-15T19:01:33.988Z,1.2
2023-12-15T19:03:34.823Z,1.2
2023-12-15T19:06:35.536Z,1.2
2023-12-15T19:08:36.094Z,1.2
2023-12-15T19:11:36.669Z,1.2
2023-12-15T19:13:37.367Z,1.2
2023-12-15T19:16:38.029Z,1.2
2023-12-15T19:21:38.665Z,1.2
2023-12-15T19:24:39.500Z,1.2
2023-12-15T19:26:40.152Z,1.2
2023-12-15T19:29:40.755Z,1.2
2023-12-15T19:31:41.393Z,1.3
2023-12-15T19:34:42.503Z,1.3
2023-12-15T19:36:43.678Z,1.3
2023-12-15T19:39:44.417Z,1.3
2023-12-15T19:41:45.148Z,1.3
2023-12-15T19:44:45.714Z,1.2
2023-12-15T19:46:46.308Z,1.2
2023-12-15T19:49:46.958Z,1.2
2023-12-15T19:51:47.837Z,1.2
2023-12-15T19:54:48.548Z,1.2
2023-12-15T19:56:49.398Z,1.2
2023-12-15T20:02:50.028Z,1.2
2023-12-15T20:04:50.829Z,1.2
2023-12-15T20:07:51.970Z,1.2
2023-12-15T20:09:52.556Z,1.1
2023-12-15T20:12:53.273Z,1.2
2023-12-15T20:14:53.915Z,1.1
2023-12-15T20:17:54.486Z,1.1
2023-12-15T20:19:55.214Z,1.1
2023-12-15T20:22:56.111Z,1.1
2023-12-15T20:24:56.673Z,1.1
2023-12-15T20:27:57.474Z,1.1
2023-12-15T20:29:58.149Z,1.1
2023-12-15T20:32:58.799Z,1.1
2023-12-15T20:37:59.732Z,1.1
2023-12-15T20:43:00.370Z,1.1
2023-12-15T20:45:01.246Z,1.1
2023-12-15T20:48:01.817Z,1.1
2023-12-15T20:51:02.633Z,1.1
2023-12-15T20:53:03.321Z,1.1
2023-12-15T20:56:03.910Z,1.1
2023-12-15T20:58:04.516Z,1.1
2023-12-15T21:01:05.274Z,1.1
2023-12-15T21:03:06.147Z,1.1
2023-12-15T21:06:06.764Z,1.1
2023-12-15T21:08:07.452Z,1.1
2023-12-15T21:11:08.065Z,1.1
2023-12-15T21:13:08.657Z,1.1
2023-12-15T21:16:09.483Z,1.1
2023-12-15T21:18:10.231Z,1.1
2023-12-15T21:23:11.625Z,1.1
2023-12-15T21:26:12.517Z,1.1
2023-12-15T21:29:13.081Z,1.1
2023-12-15T21:31:13.883Z,1.1
2023-12-15T21:34:15.111Z,1.0
2023-12-15T21:36:16.042Z,1.0
2023-12-15T21:39:16.654Z,1.0
2023-12-15T21:41:17.226Z,1.1
2023-12-15T21:44:17.890Z,1.1
2023-12-15T21:46:18.642Z,1.1
2023-12-15T21:49:19.736Z,1.1
2023-12-15T21:51:20.971Z,1.1
2023-12-15T21:54:21.948Z,1.1
2023-12-15T21:56:22.517Z,1.1
2023-12-15T21:59:23.105Z,1.1
2023-12-15T22:04:23.743Z,1.1
2023-12-15T22:07:24.628Z,1.0
2023-12-15T22:09:25.434Z,1.0
2023-12-15T22:12:26.022Z,1.0
2023-12-15T22:14:32.130Z,1.0
2023-12-15T22:16:46.372Z,0.9
2023-12-15T22:19:47.027Z,0.9
2023-12-15T22:21:47.784Z,0.9
2023-12-15T22:24:48.457Z,0.8
2023-12-15T22:26:49.199Z,0.8
2023-12-15T22:29:49.790Z,0.8
2023-12-15T22:31:50.441Z,0.8
2023-12-15T22:34:51.226Z,0.8
2023-12-15T22:37:52.021Z,0.8
2023-12-15T22:39:52.604Z,0.8
2023-12-15T22:44:53.257Z,0.7
2023-12-15T22:47:53.889Z,0.7
2023-12-15T22:49:54.663Z,0.7
2023-12-15T22:52:55.728Z,0.7
2023-12-15T22:57:56.387Z,0.7
2023-12-15T22:59:57.113Z,0.6
2023-12-15T23:02:57.691Z,0.6
2023-12-15T23:04:58.360Z,0.6
2023-12-15T23:07:59.313Z,0.6
2023-12-15T23:09:59.942Z,0.6
2023-12-15T23:13:01.089Z,0.6
2023-12-15T23:16:01.936Z,0.6
2023-12-15T23:18:03.043Z,0.5
2023-12-15T23:26:03.951Z,0.6
2023-12-15T23:28:04.595Z,0.6
2023-12-15T23:31:05.555Z,0.6
2023-12-15T23:33:06.653Z,0.5
2023-12-15T23:36:07.475Z,0.5
2023-12-15T23:38:08.090Z,0.5
2023-12-15T23:41:08.692Z,0.5
2023-12-15T23:43:09.560Z,0.4
2023-12-15T23:46:10.314Z,0.4
2023-12-15T23:48:11.092Z,0.4
2023-12-15T23:51:11.957Z,0.4
2023-12-15T23:53:12.564Z,0.3
2023-12-15T23:56:13.153Z,0.3
2023-12-15T23:58:13.784Z,0.3
